createdAt,value
2023-05-02T00:01:48.688Z,50.95
2023-05-02T00:04:15.520Z,50.87
2023-05-02T00:06:42.741Z,51.39
2023-05-02T00:09:09.521Z,51.49
2023-05-02T00:11:36.075Z,51.03
2023-05-02T00:14:02.528Z,51.32
2023-05-02T00:16:29.028Z,51.38
2023-05-02T00:18:55.611Z,51.29
2023-05-02T00:21:22.083Z,51.67
2023-05-02T00:23:48.522Z,51.13
2023-05-02T00:26:15.016Z,50.97
2023-05-02T00:28:41.519Z,51.28
2023-05-02T00:31:08.088Z,51.46
2023-05-02T00:33:34.651Z,51.56
2023-05-02T00:36:01.287Z,52.22
2023-05-02T00:38:27.742Z,51.80
2023-05-02T00:40:54.222Z,51.57
2023-05-02T00:43:21.314Z,51.18
2023-05-02T00:45:48.322Z,51.29
2023-05-02T00:48:14.967Z,51.69
2023-05-02T00:50:42.782Z,51.85
2023-05-02T00:53:10.199Z,51.47
2023-05-02T00:55:37.527Z,51.73
2023-05-02T00:58:06.818Z,51.56
2023-05-02T01:00:44.365Z,51.88
2023-05-02T01:03:21.231Z,51.60
2023-05-02T01:06:32.817Z,51.48
2023-05-02T01:09:24.884Z,51.96
2023-05-02T01:12:03.447Z,51.78
2023-05-02T01:14:33.367Z,52.07
2023-05-02T01:17:05.563Z,51.89
2023-05-02T01:19:36.422Z,52.18
2023-05-02T01:22:05.744Z,52.02
2023-05-02T01:24:52.974Z,52.04
2023-05-02T01:27:33.906Z,52.27
2023-05-02T01:30:01.708Z,52.39
2023-05-02T01:32:30.953Z,51.93
2023-05-02T01:34:57.923Z,51.91
2023-05-02T01:37:24.601Z,52.01
2023-05-02T01:39:51.606Z,52.42
2023-05-02T01:42:18.517Z,52.40
2023-05-02T01:44:45.414Z,52.81
2023-05-02T01:47:12.332Z,52.74
2023-05-02T01:49:39.993Z,52.82
2023-05-02T01:52:10.821Z,52.99
2023-05-02T01:54:37.802Z,52.74
2023-05-02T01:57:06.408Z,52.84
2023-05-02T01:59:34.236Z,52.68
2023-05-02T02:02:01.871Z,52.59
2023-05-02T02:04:29.685Z,52.69
2023-05-02T02:07:01.398Z,52.97
2023-05-02T02:09:27.901Z,53.38
2023-05-02T02:12:03.724Z,53.27
2023-05-02T02:14:34.674Z,53.89
2023-05-02T02:17:02.564Z,53.52
2023-05-02T02:19:30.601Z,53.46
2023-05-02T02:21:58.431Z,53.61
2023-05-02T02:24:26.140Z,54.08
2023-05-02T02:26:52.683Z,53.70
2023-05-02T02:29:19.145Z,54.20
2023-05-02T02:31:45.780Z,54.03
2023-05-02T02:34:12.238Z,53.72
2023-05-02T02:36:50.548Z,53.95
2023-05-02T02:39:26.397Z,53.91
2023-05-02T02:42:15.825Z,54.26
2023-05-02T02:45:07.096Z,54.66
2023-05-02T02:47:43.826Z,54.80
2023-05-02T02:50:32.284Z,54.43
2023-05-02T02:53:02.360Z,54.82
2023-05-02T02:55:29.629Z,55.70
2023-05-02T02:58:02.556Z,55.90
2023-05-02T03:00:29.177Z,55.58
2023-05-02T03:02:56.624Z,55.29
2023-05-02T03:05:23.986Z,55.24
2023-05-02T03:07:51.293Z,55.69
2023-05-02T03:10:18.006Z,56.27
2023-05-02T03:12:44.507Z,55.81
2023-05-02T03:15:41.564Z,55.65
2023-05-02T03:18:08.269Z,56.32
2023-05-02T03:20:34.810Z,56.46
2023-05-02T03:23:01.639Z,56.41
2023-05-02T03:25:28.170Z,56.66
2023-05-02T03:27:57.413Z,56.46
2023-05-02T03:30:23.915Z,56.58
2023-05-02T03:32:50.576Z,56.48
2023-05-02T03:35:17.467Z,56.16
2023-05-02T03:37:44.792Z,56.64
2023-05-02T03:40:11.770Z,56.77
2023-05-02T03:42:41.100Z,56.98
2023-05-02T03:45:08.684Z,57.16
2023-05-02T03:47:35.252Z,56.72
2023-05-02T03:50:03.389Z,56.73
2023-05-02T03:52:30.029Z,56.84
2023-05-02T03:54:57.374Z,56.90
2023-05-02T03:57:24.055Z,56.23
2023-05-02T03:59:50.616Z,56.76
2023-05-02T04:02:17.316Z,56.44
2023-05-02T04:04:43.990Z,56.60
2023-05-02T04:07:16.886Z,56.33
2023-05-02T04:09:43.617Z,55.93
2023-05-02T04:12:10.093Z,56.29
2023-05-02T04:14:36.569Z,56.13
2023-05-02T04:17:03.195Z,55.98
2023-05-02T04:19:29.868Z,56.12
2023-05-02T04:21:56.353Z,55.88
2023-05-02T04:24:22.839Z,55.90
2023-05-02T04:26:49.664Z,56.29
2023-05-02T04:29:16.493Z,55.61
2023-05-02T04:31:43.181Z,55.70
2023-05-02T04:34:09.641Z,56.18
2023-05-02T04:36:37.510Z,55.80
2023-05-02T04:39:04.784Z,55.78
2023-05-02T04:41:31.235Z,55.85
2023-05-02T04:43:58.578Z,55.88
2023-05-02T04:46:25.355Z,55.67
2023-05-02T04:48:52.037Z,55.69
2023-05-02T04:51:18.589Z,55.94
2023-05-02T04:53:45.212Z,56.12
2023-05-02T04:56:12.028Z,55.71
2023-05-02T04:58:38.563Z,55.54
2023-05-02T05:01:05.096Z,55.86
2023-05-02T05:03:33.221Z,55.83
2023-05-02T05:05:59.970Z,55.56
2023-05-02T05:08:26.555Z,55.46
2023-05-02T05:10:53.139Z,55.50
2023-05-02T05:13:19.637Z,54.87
2023-05-02T05:15:47.440Z,55.04
2023-05-02T05:18:13.986Z,54.91
2023-05-02T05:20:40.532Z,54.49
2023-05-02T05:23:07.049Z,54.32
2023-05-02T05:25:33.983Z,54.74
2023-05-02T05:28:00.981Z,54.64
2023-05-02T05:30:27.476Z,54.23
2023-05-02T05:32:54.015Z,53.52
2023-05-02T05:35:20.579Z,52.97
2023-05-02T05:37:47.140Z,52.26
2023-05-02T05:40:13.729Z,51.88
2023-05-02T05:42:40.277Z,50.82
2023-05-02T05:45:07.473Z,50.56
2023-05-02T05:47:34.187Z,50.54
2023-05-02T05:50:01.263Z,50.57
2023-05-02T05:52:28.329Z,50.81
2023-05-02T05:54:58.183Z,50.07
2023-05-02T05:57:24.905Z,49.32
2023-05-02T05:59:52.025Z,47.22
2023-05-02T06:02:19.792Z,44.45
2023-05-02T06:04:47.016Z,41.56
2023-05-02T06:07:13.715Z,39.38
2023-05-02T06:09:40.283Z,39.55
2023-05-02T06:12:06.864Z,40.17
2023-05-02T06:14:33.400Z,38.72
2023-05-02T06:17:00.623Z,37.52
2023-05-02T06:19:27.178Z,37.47
2023-05-02T06:21:54.056Z,38.02
2023-05-02T06:24:20.590Z,38.43
2023-05-02T06:26:47.298Z,39.22
2023-05-02T06:29:13.862Z,38.08
2023-05-02T06:31:40.507Z,38.65
2023-05-02T06:34:07.233Z,37.87
2023-05-02T06:36:33.991Z,35.60
2023-05-02T06:39:00.572Z,35.48
2023-05-02T06:41:27.136Z,36.04
2023-05-02T06:43:53.702Z,34.74
2023-05-02T06:46:20.997Z,33.69
2023-05-02T06:48:47.654Z,33.01
2023-05-02T06:51:17.600Z,34.21
2023-05-02T06:53:44.124Z,33.44
2023-05-02T06:56:10.740Z,34.81
2023-05-02T06:58:37.381Z,33.96
2023-05-02T07:01:04.072Z,33.17
2023-05-02T07:03:30.734Z,32.71
2023-05-02T07:05:58.126Z,32.39
2023-05-02T07:08:24.676Z,32.88
2023-05-02T07:10:51.713Z,33.25
2023-05-02T07:13:18.278Z,31.78
2023-05-02T07:15:44.865Z,31.32
2023-05-02T07:18:11.595Z,31.42
2023-05-02T07:20:39.024Z,29.33
2023-05-02T07:23:05.687Z,29.39
2023-05-02T07:25:32.232Z,29.67
2023-05-02T07:27:58.951Z,29.41
2023-05-02T07:30:25.730Z,29.89
2023-05-02T07:32:52.207Z,31.17
2023-05-02T07:35:18.938Z,31.11
2023-05-02T07:37:45.660Z,31.30
2023-05-02T07:40:12.240Z,31.67
2023-05-02T07:42:41.084Z,31.52
2023-05-02T07:45:08.824Z,31.75
2023-05-02T07:47:35.358Z,32.24
2023-05-02T07:50:04.766Z,32.78
2023-05-02T07:52:31.370Z,34.65
2023-05-02T07:54:57.879Z,34.54
2023-05-02T07:57:26.338Z,35.73
2023-05-02T07:59:52.986Z,36.18
2023-05-02T08:02:20.847Z,36.11
2023-05-02T08:04:48.144Z,37.83
2023-05-02T08:07:14.766Z,38.68
2023-05-02T08:09:41.288Z,38.17
2023-05-02T08:12:08.058Z,38.69
2023-05-02T08:14:34.747Z,38.67
2023-05-02T08:17:03.392Z,40.47
2023-05-02T08:19:30.076Z,40.43
2023-05-02T08:21:56.767Z,40.73
2023-05-02T08:24:23.555Z,40.02
2023-05-02T08:26:51.007Z,39.65
2023-05-02T08:29:17.558Z,38.52
2023-05-02T08:31:44.386Z,38.42
2023-05-02T08:34:11.755Z,39.50
2023-05-02T08:36:38.353Z,40.64
2023-05-02T08:39:05.047Z,40.49
2023-05-02T08:41:31.721Z,40.42
2023-05-02T08:43:59.392Z,40.08
2023-05-02T08:46:26.818Z,39.61
2023-05-02T08:48:53.972Z,42.11
2023-05-02T08:51:23.214Z,41.08
2023-05-02T08:53:50.738Z,41.20
2023-05-02T08:56:17.699Z,39.63
2023-05-02T08:58:44.299Z,41.37
2023-05-02T09:01:15.354Z,41.13
2023-05-02T09:03:44.314Z,40.96
2023-05-02T09:06:16.413Z,41.40
2023-05-02T09:08:49.515Z,41.66
2023-05-02T09:11:17.413Z,41.43
2023-05-02T09:13:45.850Z,41.82
2023-05-02T09:16:25.709Z,41.81
2023-05-02T09:18:52.488Z,43.88
2023-05-02T09:21:26.901Z,43.36
2023-05-02T09:23:58.071Z,42.21
2023-05-02T09:26:32.685Z,43.13
2023-05-02T09:29:01.510Z,43.03
2023-05-02T09:31:54.236Z,43.58
2023-05-02T09:34:17.623Z,44.33
2023-05-02T09:36:46.156Z,44.88
2023-05-02T09:39:15.107Z,45.35
2023-05-02T09:41:46.888Z,45.56
2023-05-02T09:44:15.733Z,46.03
2023-05-02T09:46:43.864Z,45.98
2023-05-02T09:49:10.705Z,46.52
2023-05-02T09:51:37.522Z,47.33
2023-05-02T09:54:04.355Z,45.08
2023-05-02T09:56:31.086Z,46.09
2023-05-02T09:59:16.619Z,46.26
2023-05-02T10:01:43.621Z,45.78
2023-05-02T10:04:16.459Z,46.36
2023-05-02T10:06:45.057Z,46.53
2023-05-02T10:09:18.835Z,46.41
2023-05-02T10:11:55.544Z,46.90
2023-05-02T10:14:23.829Z,47.31
2023-05-02T10:17:13.427Z,46.35
2023-05-02T10:19:53.556Z,47.11
2023-05-02T10:22:20.454Z,47.46
2023-05-02T10:24:49.084Z,48.81
2023-05-02T10:27:15.945Z,49.13
2023-05-02T10:29:42.962Z,49.37
2023-05-02T10:32:09.659Z,49.79
2023-05-02T10:34:36.556Z,50.80
2023-05-02T10:37:03.165Z,50.49
2023-05-02T10:39:29.826Z,51.62
2023-05-02T10:41:58.619Z,52.18
2023-05-02T10:44:34.981Z,52.41
2023-05-02T10:47:01.741Z,51.86
2023-05-02T10:49:29.801Z,53.23
2023-05-02T10:51:56.576Z,53.67
2023-05-02T10:54:24.645Z,54.19
2023-05-02T10:57:06.680Z,55.12
2023-05-02T10:59:42.753Z,55.83
2023-05-02T11:02:23.665Z,56.92
2023-05-02T11:05:04.725Z,59.13
2023-05-02T11:07:36.537Z,62.44
2023-05-02T11:10:18.095Z,62.92
2023-05-02T11:12:50.977Z,65.19
2023-05-02T11:15:43.170Z,66.71
2023-05-02T11:18:13.299Z,66.64
2023-05-02T11:20:41.448Z,67.99
2023-05-02T11:23:13.943Z,68.70
2023-05-02T11:25:43.524Z,69.80
2023-05-02T11:28:48.327Z,70.25
2023-05-02T11:31:35.157Z,69.51
2023-05-02T11:34:03.189Z,70.22
2023-05-02T11:36:35.811Z,68.85
2023-05-02T11:39:05.318Z,68.70
2023-05-02T11:41:41.229Z,65.61
2023-05-02T11:44:08.048Z,65.54
2023-05-02T11:46:38.687Z,66.87
2023-05-02T11:49:07.001Z,64.56
2023-05-02T11:51:35.830Z,64.04
2023-05-02T11:54:03.362Z,62.67
2023-05-02T11:56:29.928Z,63.69
2023-05-02T11:59:01.152Z,62.88
2023-05-02T12:01:28.021Z,62.11
2023-05-02T12:04:05.651Z,62.03
2023-05-02T12:06:32.376Z,59.96
2023-05-02T12:09:09.323Z,59.96
2023-05-02T12:11:38.135Z,59.75
2023-05-02T12:14:05.906Z,57.71
2023-05-02T12:16:32.888Z,56.25
2023-05-02T12:19:01.131Z,55.53
2023-05-02T12:21:29.985Z,54.70
2023-05-02T12:23:57.289Z,54.70
2023-05-02T12:26:27.606Z,54.80
2023-05-02T12:28:55.174Z,53.49
2023-05-02T12:31:22.776Z,54.30
2023-05-02T12:33:51.094Z,54.93
2023-05-02T12:36:19.266Z,54.05
2023-05-02T12:38:53.794Z,53.84
2023-05-02T12:41:35.947Z,52.59
2023-05-02T12:44:03.664Z,49.59
2023-05-02T12:46:31.666Z,48.33
2023-05-02T12:49:09.897Z,49.00
2023-05-02T12:51:37.798Z,47.87
2023-05-02T12:54:04.860Z,48.02
2023-05-02T12:56:39.515Z,49.17
2023-05-02T12:59:06.285Z,50.05
2023-05-02T13:04:00.878Z,49.17
2023-05-02T13:06:27.766Z,49.35
2023-05-02T13:08:54.686Z,49.01
2023-05-02T13:11:21.496Z,49.59
2023-05-02T13:13:48.220Z,49.67
2023-05-02T13:16:15.261Z,49.42
2023-05-02T13:18:41.918Z,48.53
2023-05-02T13:21:08.697Z,47.78
2023-05-02T13:23:35.581Z,50.07
2023-05-02T13:26:02.184Z,47.29
2023-05-02T13:28:33.327Z,44.07
2023-05-02T13:30:59.898Z,42.78
2023-05-02T13:33:26.417Z,44.18
2023-05-02T13:35:52.911Z,44.63
2023-05-02T13:38:19.771Z,43.62
2023-05-02T13:40:46.660Z,43.44
2023-05-02T13:43:13.522Z,44.06
2023-05-02T13:45:40.566Z,43.03
2023-05-02T13:48:07.247Z,42.43
2023-05-02T13:50:37.436Z,43.10
2023-05-02T13:53:05.043Z,43.43
2023-05-02T13:55:35.125Z,43.44
2023-05-02T13:58:02.325Z,42.69
2023-05-02T14:00:31.931Z,43.76
2023-05-02T14:02:58.759Z,43.66
2023-05-02T14:05:25.509Z,43.83
2023-05-02T14:07:52.505Z,45.20
2023-05-02T14:10:19.217Z,44.37
2023-05-02T14:12:45.989Z,44.26
2023-05-02T14:15:12.878Z,44.04
2023-05-02T14:17:39.511Z,42.48
2023-05-02T14:20:07.643Z,42.06
2023-05-02T14:22:34.725Z,41.74
2023-05-02T14:25:01.390Z,41.66
2023-05-02T14:27:27.884Z,42.94
2023-05-02T14:29:54.565Z,43.07
2023-05-02T14:32:21.815Z,42.29
2023-05-02T14:34:48.320Z,42.49
2023-05-02T14:37:14.964Z,42.25
2023-05-02T14:39:42.679Z,42.50
2023-05-02T14:42:09.281Z,42.80
2023-05-02T14:44:35.770Z,42.70
2023-05-02T14:47:02.514Z,42.47
2023-05-02T14:49:29.116Z,41.33
2023-05-02T14:51:57.158Z,41.73
2023-05-02T14:54:29.516Z,41.76
2023-05-02T14:56:56.875Z,42.50
2023-05-02T14:59:23.474Z,43.03
2023-05-02T15:01:51.640Z,43.13
2023-05-02T15:04:19.889Z,42.98
2023-05-02T15:06:48.117Z,42.94
2023-05-02T15:09:16.007Z,42.83
2023-05-02T15:11:42.671Z,43.33
2023-05-02T15:14:09.202Z,42.91
2023-05-02T15:16:37.374Z,42.65
2023-05-02T15:19:04.190Z,42.33
2023-05-02T15:21:30.996Z,43.13
2023-05-02T15:23:57.754Z,42.86
2023-05-02T15:26:25.579Z,43.42
2023-05-02T15:28:52.198Z,42.90
2023-05-02T15:31:18.829Z,42.98
2023-05-02T15:33:45.333Z,42.62
2023-05-02T15:36:11.853Z,42.89
2023-05-02T15:38:42.775Z,43.57
2023-05-02T15:41:11.002Z,43.07
2023-05-02T15:43:37.999Z,43.05
2023-05-02T15:46:04.849Z,43.33
2023-05-02T15:48:35.137Z,43.91
2023-05-02T15:51:02.697Z,44.04
2023-05-02T15:53:29.386Z,44.31
2023-05-02T15:55:55.960Z,44.29
2023-05-02T15:58:22.721Z,43.65
2023-05-02T16:00:49.489Z,44.17
2023-05-02T16:03:16.422Z,44.77
2023-05-02T16:05:42.971Z,44.82
2023-05-02T16:08:09.487Z,44.90
2023-05-02T16:10:36.626Z,45.66
2023-05-02T16:13:03.356Z,45.00
2023-05-02T16:15:30.541Z,45.86
2023-05-02T16:17:57.370Z,46.39
2023-05-02T16:20:24.073Z,46.41
2023-05-02T16:22:52.231Z,47.61
2023-05-02T16:25:19.072Z,46.61
2023-05-02T16:27:46.123Z,46.96
2023-05-02T16:30:13.032Z,47.60
2023-05-02T16:32:39.723Z,48.05
2023-05-02T16:35:08.094Z,48.32
2023-05-02T16:37:35.430Z,48.71
2023-05-02T16:40:02.700Z,48.61
2023-05-02T16:42:29.705Z,48.81
2023-05-02T16:44:56.927Z,48.83
2023-05-02T16:47:24.235Z,49.24
2023-05-02T16:49:54.800Z,49.12
2023-05-02T16:52:21.899Z,49.51
2023-05-02T16:54:48.881Z,49.23
2023-05-02T16:57:19.746Z,50.15
2023-05-02T16:59:51.209Z,50.14
2023-05-02T17:02:20.028Z,50.73
2023-05-02T17:04:46.589Z,51.00
2023-05-02T17:07:14.043Z,51.30
2023-05-02T17:09:41.743Z,51.71
2023-05-02T17:12:10.690Z,51.61
2023-05-02T17:14:38.554Z,51.63
2023-05-02T17:17:05.419Z,52.23
2023-05-02T17:19:31.973Z,52.45
2023-05-02T17:21:59.385Z,52.75
2023-05-02T17:24:26.143Z,52.93
2023-05-02T17:26:52.684Z,53.34
2023-05-02T17:29:19.250Z,53.30
2023-05-02T17:31:45.932Z,53.37
2023-05-02T17:34:12.672Z,53.30
2023-05-02T17:36:41.952Z,53.44
2023-05-02T17:39:09.084Z,53.15
2023-05-02T17:41:36.633Z,53.06
2023-05-02T17:44:04.918Z,53.03
2023-05-02T17:46:32.621Z,53.18
2023-05-02T17:48:59.981Z,53.30
2023-05-02T17:51:27.076Z,53.27
2023-05-02T17:53:53.951Z,53.03
2023-05-02T17:56:20.949Z,52.59
2023-05-02T17:58:47.555Z,52.49
2023-05-02T18:01:14.341Z,51.87
2023-05-02T18:03:41.801Z,51.72
2023-05-02T18:06:09.076Z,52.14
2023-05-02T18:08:35.782Z,52.29
2023-05-02T18:11:03.320Z,51.89
2023-05-02T18:13:30.112Z,52.12
2023-05-02T18:15:59.933Z,52.67
2023-05-02T18:18:26.541Z,52.75
2023-05-02T18:20:53.276Z,52.77
2023-05-02T18:23:19.907Z,53.12
2023-05-02T18:25:46.421Z,54.28
2023-05-02T18:28:13.485Z,53.69
2023-05-02T18:30:40.355Z,55.06
2023-05-02T18:33:07.746Z,54.39
2023-05-02T18:35:34.319Z,52.61
2023-05-02T18:38:01.014Z,52.67
2023-05-02T18:40:27.574Z,53.42
2023-05-02T18:42:54.044Z,53.54
2023-05-02T18:45:21.096Z,53.27
2023-05-02T18:47:48.039Z,52.94
2023-05-02T18:50:14.610Z,52.27
2023-05-02T18:52:41.346Z,52.52
2023-05-02T18:55:08.066Z,53.02
2023-05-02T18:57:34.598Z,52.84
2023-05-02T19:00:01.360Z,52.55
2023-05-02T19:02:28.158Z,52.83
2023-05-02T19:04:55.415Z,52.91
2023-05-02T19:07:21.940Z,52.91
2023-05-02T19:09:48.431Z,53.25
2023-05-02T19:12:14.954Z,53.00
2023-05-02T19:14:42.035Z,53.62
2023-05-02T19:17:08.542Z,53.95
2023-05-02T19:19:35.767Z,54.47
2023-05-02T19:22:02.249Z,55.70
2023-05-02T19:24:28.715Z,55.40
2023-05-02T19:26:55.207Z,55.41
2023-05-02T19:29:21.828Z,56.41
2023-05-02T19:31:48.679Z,56.23
2023-05-02T19:34:15.455Z,56.76
2023-05-02T19:36:42.143Z,57.27
2023-05-02T19:39:09.434Z,57.13
2023-05-02T19:41:36.299Z,57.50
2023-05-02T19:44:02.922Z,58.13
2023-05-02T19:46:30.239Z,58.70
2023-05-02T19:48:56.953Z,58.86
2023-05-02T19:51:25.677Z,59.30
2023-05-02T19:53:55.021Z,58.97
2023-05-02T19:56:21.858Z,59.07
2023-05-02T19:58:48.521Z,59.50
2023-05-02T20:01:15.078Z,59.70
2023-05-02T20:03:41.809Z,59.71
2023-05-02T20:06:08.683Z,59.91
2023-05-02T20:08:35.447Z,60.58
2023-05-02T20:11:02.183Z,61.12
2023-05-02T20:13:28.758Z,61.16
2023-05-02T20:15:55.270Z,61.51
2023-05-02T20:18:21.838Z,61.66
2023-05-02T20:20:48.507Z,61.68
2023-05-02T20:23:15.016Z,61.45
2023-05-02T20:25:42.875Z,62.37
2023-05-02T20:28:09.811Z,62.98
2023-05-02T20:30:36.390Z,62.80
2023-05-02T20:33:14.040Z,63.42
2023-05-02T20:35:41.978Z,63.38
2023-05-02T20:38:08.465Z,63.81
2023-05-02T20:40:37.713Z,63.59
2023-05-02T20:43:05.481Z,63.25
2023-05-02T20:45:31.959Z,63.50
2023-05-02T20:47:58.605Z,64.13
2023-05-02T20:50:25.302Z,64.28
2023-05-02T20:52:51.842Z,63.85
2023-05-02T20:55:18.727Z,64.11
2023-05-02T20:57:45.821Z,64.03
2023-05-02T21:00:14.158Z,64.24
2023-05-02T21:02:41.049Z,64.77
2023-05-02T21:05:08.197Z,65.84
2023-05-02T21:07:34.870Z,65.41
2023-05-02T21:10:01.695Z,65.01
2023-05-02T21:12:28.623Z,64.97
2023-05-02T21:14:55.082Z,65.92
2023-05-02T21:17:21.835Z,66.71
2023-05-02T21:19:48.399Z,66.49
2023-05-02T21:22:14.912Z,66.90
2023-05-02T21:24:41.522Z,66.58
2023-05-02T21:27:08.250Z,67.34
2023-05-02T21:29:34.866Z,67.14
2023-05-02T21:32:01.502Z,67.28
2023-05-02T21:34:28.037Z,67.86
2023-05-02T21:36:54.752Z,66.21
2023-05-02T21:39:21.317Z,65.45
2023-05-02T21:41:47.844Z,65.83
2023-05-02T21:44:14.492Z,65.96
2023-05-02T21:46:41.193Z,65.22
2023-05-02T21:49:08.116Z,65.20
2023-05-02T21:51:34.894Z,65.57
2023-05-02T21:54:01.632Z,65.58
2023-05-02T21:56:28.204Z,65.31
2023-05-02T21:58:54.796Z,64.76
2023-05-02T22:01:21.381Z,65.14
2023-05-02T22:03:48.004Z,64.71
2023-05-02T22:06:15.128Z,64.97
2023-05-02T22:08:41.698Z,64.72
2023-05-02T22:11:09.224Z,65.37
2023-05-02T22:13:36.414Z,65.71
2023-05-02T22:16:03.436Z,65.25
2023-05-02T22:18:29.975Z,64.85
2023-05-02T22:20:58.605Z,65.69
2023-05-02T22:23:25.173Z,65.29
2023-05-02T22:25:51.861Z,65.11
2023-05-02T22:28:18.385Z,64.87
2023-05-02T22:30:44.994Z,64.90
2023-05-02T22:33:12.107Z,64.33
2023-05-02T22:35:38.775Z,64.23
2023-05-02T22:38:06.493Z,64.15
2023-05-02T22:40:33.035Z,63.98
2023-05-02T22:43:00.884Z,63.88
2023-05-02T22:45:27.917Z,64.40
2023-05-02T22:47:54.715Z,64.41
2023-05-02T22:50:21.420Z,64.09
2023-05-02T22:52:48.968Z,65.06
2023-05-02T22:55:15.518Z,64.42
2023-05-02T22:57:42.788Z,64.46
2023-05-02T23:00:10.603Z,63.87
2023-05-02T23:02:37.481Z,64.61
2023-05-02T23:05:04.492Z,64.31
2023-05-02T23:07:30.991Z,64.77
2023-05-02T23:09:57.484Z,65.01
2023-05-02T23:12:24.067Z,64.76
2023-05-02T23:14:50.594Z,64.32
2023-05-02T23:17:17.214Z,64.32
2023-05-02T23:19:43.694Z,64.78
2023-05-02T23:22:10.198Z,65.83
2023-05-02T23:24:36.711Z,65.45
2023-05-02T23:27:03.747Z,65.59
2023-05-02T23:29:30.323Z,65.87
2023-05-02T23:31:56.951Z,65.78
2023-05-02T23:34:23.451Z,66.14
2023-05-02T23:36:51.736Z,66.14
2023-05-02T23:39:18.480Z,66.55
2023-05-02T23:41:44.949Z,66.55
2023-05-02T23:44:11.445Z,66.54
2023-05-02T23:46:37.967Z,66.57
2023-05-02T23:49:04.588Z,67.48
2023-05-02T23:51:32.111Z,67.39
2023-05-02T23:53:58.782Z,66.37
2023-05-02T23:56:26.043Z,65.84
2023-05-02T23:58:52.536Z,65.05
